^^
Station Historical Data
 
Daily Summary for February 23, 2019 Units:  English    Metric   Both
Next Day »
Daily Weekly Monthly Yearly Custom
  Current: High: Low: Average:
Temperature: 53.8 °F 58.5 °F 30.6 °F 43.2 °F
Dew Point: 31.1 °F 36.7 °F 27.7 °F 31.8 °F
Humidity: 42% 94% 33% 70%
Wind Speed: 3.5mph 6.9mph 0mph 1.4mph
Wind Gust: 1.2mph 7mph - -
WindSW - - South
Pressure: 30.3 in 30.4 in 30.2 in -
Precipitation: 0.01 in      
Historical Graphs
 
 
Tabular Data for February 23, 2019
Time Temperature Dew Point Pressure Wind Wind Speed Wind Gust Humidity Rainfall Rate (Hourly) solar Conditions
00:04 37.2 °F 35.4 °F 30.2 in Calm     93% 0 in 0.00 W/m2 RA
00:09 37 °F 35.2 °F 30.2 in Calm     93% 0 in 0.00 W/m2 RA
00:14 37 °F 35.2 °F 30.2 in Calm     93% 0 in 0.00 W/m2 CLR
00:19 37 °F 35.2 °F 30.2 in Calm     93% 0 in 0.00 W/m2 CLR
00:24 36.9 °F 35.1 °F 30.2 in Calm     93% 0 in 0.00 W/m2 CLR
00:29 36.7 °F 34.9 °F 30.2 in Calm     93% 0 in 0.00 W/m2 CLR
00:34 36.5 °F 34.7 °F 30.2 in Calm     93% 0 in 0.00 W/m2 CLR
00:39 36.3 °F 34.3 °F 30.2 in Calm     92% 0 in 0.00 W/m2 CLR
00:44 36.1 °F 34.3 °F 30.2 in Calm     93% 0 in 0.00 W/m2 CLR
00:49 36 °F 34.2 °F 30.2 in Calm     93% 0 in 0.00 W/m2 CLR
00:54 36 °F 34.2 °F 30.2 in Calm     93% 0 in 0.00 W/m2 CLR
00:59 36 °F 34.2 °F 30.2 in Calm     93% 0 in 0.00 W/m2 CLR
01:04 35.8 °F 33.6 °F 30.2 in Calm     92% 0 in 0.00 W/m2 CLR
01:09 35.6 °F 33.4 °F 30.2 in Calm     92% 0 in 0.00 W/m2 CLR
01:14 35.4 °F 33.3 °F 30.2 in Calm     92% 0 in 0.00 W/m2 CLR
01:19 35.1 °F 33.1 °F 30.2 in Calm     92% 0 in 0.00 W/m2 CLR
01:24 35.1 °F 33.1 °F 30.2 in Calm     92% 0 in 0.00 W/m2 CLR
01:29 35.1 °F 33.3 °F 30.2 in Calm     93% 0 in 0.00 W/m2 CLR
01:34 34.9 °F 33.1 °F 30.2 in Calm     93% 0 in 0.00 W/m2 CLR
01:39 34.9 °F 33.1 °F 30.2 in Calm     93% 0 in 0.00 W/m2 CLR
01:44 34.7 °F 32.5 °F 30.2 in Calm     92% 0 in 0.00 W/m2 CLR
01:49 34.5 °F 32.5 °F 30.2 in Calm     92% 0 in 0.00 W/m2 CLR
01:54 34.3 °F 32.2 °F 30.2 in Calm     92% 0 in 0.00 W/m2 CLR
01:59 34.2 °F 32.2 °F 30.2 in Calm     92% 0 in 0.00 W/m2 CLR
02:04 34.2 °F 32.4 °F 30.2 in Calm     93% 0 in 0.00 W/m2 CLR
02:09 34 °F 31.8 °F 30.2 in Calm     92% 0 in 0.00 W/m2 CLR
02:14 33.6 °F 31.8 °F 30.2 in Calm     93% 0 in 0.00 W/m2 CLR
02:19 33.6 °F 31.8 °F 30.2 in Calm     93% 0 in 0.00 W/m2 CLR
02:24 33.6 °F 31.8 °F 30.2 in Calm     93% 0 in 0.00 W/m2 CLR
02:29 33.4 °F 31.5 °F 30.2 in Calm     92% 0 in 0.00 W/m2 CLR
02:34 33.4 °F 31.6 °F 30.2 in Calm     93% 0 in 0.00 W/m2 CLR
02:39 33.4 °F 31.6 °F 30.2 in Calm     93% 0 in 0.00 W/m2 CLR
02:44 33.4 °F 31.6 °F 30.2 in Calm     93% 0 in 0.00 W/m2 CLR
02:49 33.3 °F 31.5 °F 30.2 in Calm     93% 0 in 0.00 W/m2 CLR
02:54 33.1 °F 31.3 °F 30.2 in Calm     93% 0 in 0.00 W/m2 CLR
02:59 33.1 °F 31.3 °F 30.2 in Calm     93% 0 in 0.00 W/m2 CLR
03:05 32.9 °F 31.1 °F 30.2 in NE 1 mph 2 mph 93% 0 in 0.00 W/m2 CLR
03:09 33.1 °F 31.3 °F 30.3 in Calm     93% 0 in 0.00 W/m2 CLR
03:14 33.1 °F 31.3 °F 30.3 in Calm     93% 0 in 0.00 W/m2 CLR
03:19 33.1 °F 31.3 °F 30.3 in Calm     93% 0 in 0.00 W/m2 CLR
03:24 33.1 °F 31.3 °F 30.3 in Calm     93% 0 in 0.00 W/m2 CLR
03:29 33.1 °F 31.3 °F 30.3 in NE 1.2 mph 0.1 mph 93% 0 in 0.00 W/m2 CLR
03:34 33.3 °F 31.5 °F 30.3 in NE 1 mph   93% 0 in 0.00 W/m2 CLR
03:39 33.3 °F 31.5 °F 30.3 in Calm     93% 0 in 0.00 W/m2 CLR
03:44 33.3 °F 31.5 °F 30.3 in NE 1.2 mph   93% 0 in 0.00 W/m2 CLR
03:49 33.4 °F 31.6 °F 30.3 in NE 1.2 mph 0.1 mph 93% 0 in 0.00 W/m2 CLR
03:54 33.4 °F 31.6 °F 30.3 in NE 1.2 mph   93% 0 in 0.00 W/m2 CLR
03:59 33.4 °F 31.6 °F 30.3 in Calm     93% 0 in 0.00 W/m2 CLR
04:04 33.4 °F 31.6 °F 30.3 in Calm     93% 0 in 0.00 W/m2 CLR
04:09 33.4 °F 31.6 °F 30.3 in Calm     93% 0 in 0.00 W/m2 CLR
04:14 33.3 °F 31.5 °F 30.3 in Calm     93% 0 in 0.00 W/m2 CLR
04:19 33.3 °F 31.5 °F 30.3 in Calm     93% 0 in 0.00 W/m2 CLR
04:24 33.3 °F 31.5 °F 30.3 in Calm     93% 0 in 0.00 W/m2 CLR
04:29 33.1 °F 31.3 °F 30.3 in Calm     93% 0 in 0.00 W/m2 CLR
04:35 32.9 °F 31.1 °F 30.3 in Calm     93% 0 in 0.00 W/m2 CLR
04:39 32.7 °F 30.9 °F 30.3 in Calm     93% 0 in 0.00 W/m2 CLR
04:44 32.7 °F 30.9 °F 30.3 in Calm     93% 0 in 0.00 W/m2 CLR
04:49 32.7 °F 30.9 °F 30.3 in Calm     93% 0 in 0.00 W/m2 CLR
04:54 32.5 °F 30.7 °F 30.3 in Calm     93% 0 in 0.00 W/m2 CLR
04:59 32.4 °F 30.6 °F 30.3 in Calm     93% 0 in 0.00 W/m2 CLR
05:04 32.4 °F 30.6 °F 30.3 in Calm     93% 0 in 0.00 W/m2 CLR
05:09 32.2 °F 30.4 °F 30.3 in Calm     93% 0 in 0.00 W/m2 CLR
05:14 32.2 °F 30.4 °F 30.3 in Calm     93% 0 in 0.00 W/m2 CLR
05:19 32 °F 30.2 °F 30.3 in Calm     93% 0 in 0.00 W/m2 CLR
05:24 31.8 °F 30 °F 30.3 in Calm     93% 0 in 0.00 W/m2 CLR
05:29 31.6 °F 29.8 °F 30.3 in Calm     93% 0 in 0.00 W/m2 CLR
05:34 31.6 °F 29.8 °F 30.3 in Calm     93% 0 in 0.00 W/m2 CLR
05:39 31.6 °F 29.8 °F 30.3 in Calm     93% 0 in 0.00 W/m2 CLR
05:45 31.5 °F 29.7 °F 30.3 in Calm   1 mph 93% 0 in 0.00 W/m2 CLR
05:49 31.5 °F 29.7 °F 30.3 in Calm     93% 0 in 0.00 W/m2 CLR
05:54 31.5 °F 29.7 °F 30.3 in NE 2.3 mph 0.3 mph 93% 0 in 0.00 W/m2 CLR
05:59 31.5 °F 29.7 °F 30.3 in Calm     93% 0 in 0.00 W/m2 CLR
06:05 31.5 °F 29.7 °F 30.3 in Calm     93% 0 in 0.00 W/m2 CLR
06:09 31.5 °F 29.7 °F 30.3 in Calm     93% 0 in 0.00 W/m2 CLR
06:14 31.5 °F 29.7 °F 30.3 in Calm     93% 0 in 0.00 W/m2 CLR
06:19 31.3 °F 29.5 °F 30.3 in Calm     93% 0 in 0.00 W/m2 CLR
06:24 31.3 °F 29.5 °F 30.3 in Calm     93% 0 in 0.00 W/m2 CLR
06:29 30.9 °F 29.1 °F 30.3 in Calm     93% 0 in 0.00 W/m2 CLR
06:34 30.9 °F 29.1 °F 30.3 in Calm     93% 0 in 0.00 W/m2 CLR
06:39 30.9 °F 29.1 °F 30.3 in Calm     93% 0 in 0.00 W/m2 CLR
06:45 30.7 °F 28.9 °F 30.3 in Calm     93% 0 in 0.00 W/m2 CLR
06:49 30.7 °F 28.9 °F 30.3 in Calm     93% 0 in 0.00 W/m2 CLR
06:54 30.6 °F 28.8 °F 30.3 in Calm     93% 0 in 0.00 W/m2 CLR
06:59 30.6 °F 28.8 °F 30.3 in Calm     93% 0 in 0.00 W/m2 CLR
07:04 30.6 °F 28.8 °F 30.3 in Calm     93% 0 in 5.00 W/m2 CLR
07:09 30.6 °F 28.8 °F 30.3 in Calm     93% 0 in 9.00 W/m2 CLR
07:15 30.6 °F 28.8 °F 30.3 in Calm     93% 0 in 11.00 W/m2 BKN
07:19 30.6 °F 28.8 °F 30.3 in Calm     93% 0 in 14.00 W/m2 SCT
07:24 30.7 °F 28.9 °F 30.3 in NE 1.2 mph   93% 0 in 21.00 W/m2 SCT
07:29 30.9 °F 29.1 °F 30.3 in Calm     93% 0 in 40.00 W/m2 SCT
07:34 31.3 °F 29.7 °F 30.3 in NE 2.3 mph   94% 0 in 69.00 W/m2 CLR
07:39 32 °F 30.6 °F 30.3 in SSE 1.2 mph 0.7 mph 94% 0 in 88.00 W/m2 CLR
07:45 32.5 °F 31.1 °F 30.3 in Calm   2 mph 94% 0 in 105.00 W/m2 CLR
07:49 33.3 °F 31.8 °F 30.3 in SSE 1.2 mph   94% 0 in 141.00 W/m2 CLR
07:54 33.8 °F 32.4 °F 30.4 in SSE 1.2 mph 0.1 mph 94% 0 in 160.00 W/m2 CLR
07:59 34.2 °F 32.7 °F 30.4 in Calm     94% 0 in 172.00 W/m2 CLR
08:05 34.5 °F 33.1 °F 30.4 in Calm   5 mph 94% 0 in 192.00 W/m2 CLR
08:09 35.1 °F 33.4 °F 30.4 in Calm     94% 0.01 in 204.00 W/m2 RA
08:15 35.2 °F 33.6 °F 30.4 in Calm   3 mph 94% 0 in 225.00 W/m2 RA
08:19 35.8 °F 34.2 °F 30.4 in SSE 2.3 mph 0.2 mph 94% 0.01 in 243.00 W/m2 CLR
08:25 36.1 °F 34.5 °F 30.4 in Calm   2 mph 94% 0 in 258.00 W/m2 CLR
08:29 36.3 °F 34.9 °F 30.4 in ESE 3.5 mph 0.8 mph 94% 0.01 in 272.00 W/m2 CLR
08:35 36.7 °F 35.2 °F 30.4 in ESE 1 mph 3 mph 94% 0 in 290.00 W/m2 CLR
08:39 37 °F 35.2 °F 30.4 in ESE 3.5 mph 1.4 mph 93% 0.01 in 306.00 W/m2 CLR
08:45 37.4 °F 35.6 °F 30.4 in SE 1 mph 4 mph 93% 0 in 322.00 W/m2 CLR
08:49 37.8 °F 36 °F 30.4 in East 5.8 mph 0.9 mph 93% 0.01 in 339.00 W/m2 CLR
08:54 38.1 °F 36 °F 30.4 in SSE 3.5 mph 1.3 mph 92% 0.01 in 355.00 W/m2 CLR
08:59 38.7 °F 36.1 °F 30.4 in South 2.3 mph 1.4 mph 91% 0.01 in 373.00 W/m2 CLR
09:05 38.8 °F 36.1 °F 30.4 in ESE 1 mph 5 mph 90% 0 in 387.00 W/m2 CLR
09:09 39.2 °F 36.1 °F 30.4 in SSE 3.5 mph 0.3 mph 89% 0 in 404.00 W/m2 CLR
09:15 39.6 °F 36 °F 30.4 in Calm   3 mph 87% 0 in 420.00 W/m2 CLR
09:19 39.7 °F 36 °F 30.4 in East 3.5 mph 2.3 mph 86% 0 in 436.00 W/m2 CLR
09:25 40.1 °F 36 °F 30.4 in ESE 1 mph 4 mph 85% 0 in 455.00 W/m2 CLR
09:29 40.6 °F 36.1 °F 30.4 in East 4.6 mph 0.7 mph 84% 0 in 478.00 W/m2 CLR
09:34 41.2 °F 36 °F 30.4 in South 3.5 mph 0.7 mph 82% 0 in 499.00 W/m2 CLR
09:39 41.4 °F 35.8 °F 30.4 in SE 4 mph 1.8 mph 80% 0 in 527.00 W/m2 CLR
09:45 41.7 °F 35.8 °F 30.4 in ESE 1 mph 5 mph 79% 0 in 554.00 W/m2 CLR
09:49 42.3 °F 36.1 °F 30.4 in NNE 4 mph 1.4 mph 79% 0 in 578.00 W/m2 CLR
09:55 42.6 °F 36.3 °F 30.4 in ESE 1 mph 5 mph 78% 0 in 601.00 W/m2 CLR
09:59 43 °F 36 °F 30.4 in ENE 3.5 mph 1.7 mph 76% 0 in 613.00 W/m2 CLR
10:05 43.3 °F 36.7 °F 30.4 in ESE 1 mph 3 mph 77% 0 in 628.00 W/m2 CLR
10:09 43.7 °F 36.3 °F 30.4 in SE 4.6 mph 1.9 mph 75% 0 in 640.00 W/m2 CLR
10:15 44.1 °F 36 °F 30.4 in ESE 1 mph 5 mph 73% 0 in 652.00 W/m2 CLR
10:19 44.2 °F 36.1 °F 30.4 in ESE 2.3 mph 0.3 mph 73% 0 in 666.00 W/m2 CLR
10:24 44.8 °F 36 °F 30.4 in East 5.8 mph 2.2 mph 71% 0 in 680.00 W/m2 CLR
10:29 45.3 °F 35.8 °F 30.4 in SE 1.2 mph 1 mph 69% 0 in 691.00 W/m2 CLR
10:34 45.9 °F 34.7 °F 30.4 in NE 5.8 mph 1.9 mph 65% 0 in 703.00 W/m2 CLR
10:39 46.2 °F 34.7 °F 30.4 in SSE 3.5 mph 1.4 mph 64% 0 in 712.00 W/m2 CLR
10:45 46.4 °F 34.2 °F 30.4 in SE 1 mph 4 mph 62% 0 in 724.00 W/m2 CLR
10:49 46.8 °F 33.4 °F 30.4 in ENE 2.3 mph 0.4 mph 60% 0 in 735.00 W/m2 CLR
10:54 47.1 °F 33.3 °F 30.4 in South 2 mph 0.5 mph 58% 0 in 742.00 W/m2 CLR
10:59 47.7 °F 33.1 °F 30.4 in SE 2 mph 0.1 mph 57% 0 in 754.00 W/m2 CLR
11:04 48 °F 33.1 °F 30.4 in East 3.5 mph 0.7 mph 56% 0 in 761.00 W/m2 CLR
11:09 48.4 °F 31.8 °F 30.4 in NE 3.5 mph 2.3 mph 53% 0 in 768.00 W/m2 CLR
11:14 48.7 °F 32.4 °F 30.4 in NNE 2.3 mph 0.8 mph 53% 0 in 779.00 W/m2 CLR
11:19 49.1 °F 31.6 °F 30.4 in ESE 3.5 mph 1.3 mph 51% 0 in 788.00 W/m2 CLR
11:24 49.5 °F 31.5 °F 30.4 in ENE 2.3 mph 1.3 mph 50% 0 in 788.00 W/m2 CLR
11:29 49.8 °F 32.9 °F 30.4 in WSW 2.3 mph 0.9 mph 52% 0 in 795.00 W/m2 CLR
11:35 50.2 °F 31.6 °F 30.4 in SW 1 mph 4 mph 49% 0 in 803.00 W/m2 CLR
11:39 50.2 °F 30.2 °F 30.4 in WSW 3.5 mph 0.9 mph 46% 0 in 816.00 W/m2 CLR
11:44 50.9 °F 30.7 °F 30.4 in SW 3.5 mph 2.9 mph 46% 0 in 814.00 W/m2 CLR
11:49 51.3 °F 31.3 °F 30.4 in WSW 3.5 mph 1.1 mph 46% 0 in 816.00 W/m2 CLR
11:54 51.8 °F 30.6 °F 30.4 in WSW 2.3 mph 0.7 mph 44% 0 in 823.00 W/m2 CLR
11:59 52.2 °F 29.7 °F 30.4 in WSW 3.5 mph 0.2 mph 42% 0 in 828.00 W/m2 CLR
12:04 52.3 °F 29.8 °F 30.4 in WSW 2 mph 0.3 mph 42% 0 in 828.00 W/m2 CLR
12:09 52.3 °F 29.3 °F 30.4 in WSW 1.2 mph   41% 0 in 833.00 W/m2 CLR
12:15 52.3 °F 30.6 °F 30.4 in Calm   3 mph 43% 0 in 837.00 W/m2 CLR
12:19 53.1 °F 31.1 °F 30.4 in WSW 3 mph 0.6 mph 43% 0 in 840.00 W/m2 CLR
12:25 53.8 °F 31.1 °F 30.4 in West 5 mph 1.7 mph 42% 0 in 838.00 W/m2 CLR
12:29 54.5 °F 31.8 °F 30.4 in North 3 mph 0.6 mph 42% 0 in 838.00 W/m2 CLR
12:34 55 °F 31.1 °F 30.4 in West 1.2 mph 0.5 mph 40% 0 in 837.00 W/m2 CLR
12:39 55.6 °F 30.9 °F 30.4 in WSW 2.3 mph 0.5 mph 39% 0 in 840.00 W/m2 CLR
12:45 55.8 °F 30.4 °F 30.4 in SW 1 mph 4 mph 38% 0 in 837.00 W/m2 CLR
12:49 55 °F 29.3 °F 30.4 in SW 2.3 mph 0.7 mph 37% 0 in 833.00 W/m2 CLR
12:55 55.2 °F 30.6 °F 30.4 in Calm   2 mph 39% 0 in 831.00 W/m2 CLR
12:59 55 °F 29.3 °F 30.3 in NE 2.3 mph 1 mph 37% 0 in 833.00 W/m2 CLR
13:05 55.2 °F 30.7 °F 30.3 in NW 2 mph 5 mph 39% 0 in 828.00 W/m2 CLR
13:09 55.8 °F 29.8 °F 30.3 in WNW 2.3 mph 0.6 mph 37% 0 in 828.00 W/m2 CLR
13:14 55.9 °F 30 °F 30.3 in West 3.5 mph 0.7 mph 37% 0 in 821.00 W/m2 CLR
13:19 56.1 °F 30.7 °F 30.3 in WNW 3.5 mph 1.5 mph 38% 0 in 814.00 W/m2 CLR
13:25 56.5 °F 29.8 °F 30.3 in WNW 1 mph 3 mph 36% 0 in 810.00 W/m2 CLR
13:29 56.5 °F 29.1 °F 30.3 in South 2.3 mph   35% 0 in 807.00 W/m2 CLR
13:35 56.5 °F 29.1 °F 30.3 in SSW 1 mph 3 mph 35% 0 in 802.00 W/m2 CLR
13:39 56.8 °F 29.5 °F 30.3 in NW 4 mph 1.5 mph 35% 0 in 796.00 W/m2 CLR
13:45 57 °F 28.9 °F 30.3 in NW 1 mph 4 mph 34% 0 in 789.00 W/m2 CLR
13:49 56.8 °F 28 °F 30.3 in NNE 2.3 mph 1.8 mph 33% 0 in 782.00 W/m2 CLR
13:55 56.5 °F 27.7 °F 30.3 in NE 2 mph 6 mph 33% 0 in 773.00 W/m2 CLR
13:59 55.9 °F 30 °F 30.3 in NW 5 mph 1.3 mph 37% 0 in 766.00 W/m2 CLR
14:05 56.7 °F 30.6 °F 30.3 in WNW 1.2 mph 0.4 mph 37% 0 in 756.00 W/m2 CLR
14:09 56.7 °F 29.8 °F 30.3 in WNW 3.5 mph 1.2 mph 36% 0 in 749.00 W/m2 CLR
14:14 57 °F 29.7 °F 30.3 in WNW 3.5 mph 1.8 mph 35% 0 in 742.00 W/m2 CLR
14:19 56.8 °F 30.2 °F 30.3 in NNE 3.5 mph 3.6 mph 36% 0 in 731.00 W/m2 CLR
14:25 57 °F 29.7 °F 30.3 in NNE 1 mph 5 mph 35% 0 in 722.00 W/m2 CLR
14:29 56.7 °F 28.6 °F 30.3 in NNE 3.5 mph 0.4 mph 34% 0 in 708.00 W/m2 CLR
14:35 56.7 °F 29.3 °F 30.3 in North 1 mph 3 mph 35% 0 in 700.00 W/m2 CLR
14:39 57.4 °F 30.6 °F 30.3 in WNW 4.6 mph 1.5 mph 36% 0 in 686.00 W/m2 CLR
14:44 57.4 °F 29.1 °F 30.3 in WNW 3.5 mph 0.5 mph 34% 0 in 677.00 W/m2 CLR
14:49 57.6 °F 30 °F 30.3 in WNW 3.5 mph 2.4 mph 35% 0 in 664.00 W/m2 CLR
14:55 57.6 °F 30 °F 30.3 in WNW 1 mph 5 mph 35% 0 in 652.00 W/m2 CLR
14:59 57.6 °F 29.3 °F 30.3 in SSW 2.3 mph 0.1 mph 34% 0 in 638.00 W/m2 CLR
15:05 57.7 °F 29.5 °F 30.3 in SSW 1 mph 4 mph 34% 0 in 626.00 W/m2 CLR
15:09 57.9 °F 31.3 °F 30.3 in NW 4 mph 1.5 mph 36% 0 in 610.00 W/m2 CLR
15:15 58.1 °F 30.6 °F 30.3 in WNW 1 mph 7 mph 35% 0 in 598.00 W/m2 CLR
15:19 58.5 °F 30.7 °F 30.3 in West 3.5 mph 1.3 mph 35% 0 in 585.00 W/m2 CLR
15:25 58.5 °F 30.9 °F 30.3 in WNW 1 mph 5 mph 35% 0 in 570.00 W/m2 CLR
15:29 58.5 °F 30.9 °F 30.3 in WSW 2.3 mph 1.3 mph 35% 0 in 555.00 W/m2 CLR
15:35 58.3 °F 30.7 °F 30.3 in SW 2 mph 5 mph 35% 0 in 538.00 W/m2 CLR
15:39 58.1 °F 31.8 °F 30.3 in SW 4.6 mph 1.8 mph 37% 0 in 522.00 W/m2 CLR
15:45 57.9 °F 31.3 °F 30.3 in WSW 1 mph 4 mph 36% 0 in 506.00 W/m2 CLR
15:49 57.7 °F 31.6 °F 30.3 in WSW 6.9 mph 2.7 mph 37% 0 in 489.00 W/m2 CLR
15:55 57.7 °F 31.6 °F 30.3 in WSW 1 mph 5 mph 37% 0 in 476.00 W/m2 CLR
15:59 57.7 °F 31.6 °F 30.3 in SW 6 mph 3.4 mph 37% 0 in 457.00 W/m2 CLR
16:04 57.4 °F 31.3 °F 30.3 in SW 5.8 mph 2.6 mph 37% 0 in 439.00 W/m2 CLR
16:09 57 °F 30.9 °F 30.3 in SW 4.6 mph 4.1 mph 37% 0 in 424.00 W/m2 CLR
16:15 56.8 °F 30.9 °F 30.3 in SW 2 mph 5 mph 37% 0 in 406.00 W/m2 CLR
16:19 56.8 °F 31.5 °F 30.3 in West 2.3 mph 1.9 mph 38% 0 in 388.00 W/m2 CLR
16:25 57 °F 31.6 °F 30.3 in West 2 mph 6 mph 38% 0 in 371.00 W/m2 CLR
16:29 57.2 °F 31.1 °F 30.3 in WNW 3 mph 1.3 mph 37% 0 in 355.00 W/m2 CLR
16:35 57.4 °F 31.8 °F 30.3 in Calm   5 mph 38% 0 in 338.00 W/m2 CLR
16:39 57.4 °F 31.3 °F 30.3 in WSW 4.6 mph 1.4 mph 37% 0 in 318.00 W/m2 CLR
16:45 57.4 °F 31.3 °F 30.3 in West 1 mph 4 mph 37% 0 in 301.00 W/m2 CLR
16:49 57.4 °F 31.3 °F 30.3 in West 2.3 mph 1.1 mph 37% 0 in 281.00 W/m2 CLR
16:54 57.6 °F 31.5 °F 30.3 in WSW 2.3 mph 1 mph 37% 0 in 260.00 W/m2 CLR
16:59 57.4 °F 30.6 °F 30.3 in SW 3.5 mph 2.2 mph 36% 0 in 237.00 W/m2 CLR
17:05 57.2 °F 31.1 °F 30.3 in Calm   3 mph 37% 0 in 211.00 W/m2 CLR
17:09 57 °F 30.9 °F 30.3 in WNW 1.2 mph 0.1 mph 37% 0 in 185.00 W/m2 CLR
17:15 56.8 °F 31.5 °F 30.3 in Calm   2 mph 38% 0 in 162.00 W/m2 CLR
17:19 56.5 °F 30.6 °F 30.3 in WNW 1.2 mph 0.2 mph 37% 0 in 25.00 W/m2 BKN
17:25 56.3 °F 30.9 °F 30.3 in WNW 1 mph 3 mph 38% 0 in 25.00 W/m2 OVC
17:29 55.8 °F 31.8 °F 30.3 in SW 3.5 mph 1 mph 40% 0 in 23.00 W/m2 BKN
17:35 55.6 °F 30.9 °F 30.3 in Calm   2 mph 39% 0 in 21.00 W/m2 OVC
17:39 55 °F 31.3 °F 30.3 in WSW 3.5 mph 1.1 mph 40% 0 in 19.00 W/m2 BKN
17:45 54.5 °F 31.3 °F 30.3 in Calm   3 mph 41% 0 in 18.00 W/m2 OVC
17:49 54.1 °F 30.9 °F 30.3 in West 2 mph 1.1 mph 41% 0 in 16.00 W/m2 BKN
17:54 53.8 °F 31.1 °F 30.3 in SW 3.5 mph 1.2 mph 42% 0 in 14.00 W/m2 BKN
Countryside Manor, Tucson, AZ, USA